sensor_id;sensor_type;location;lat;lon;timestamp;temperature;humidity
42965;DHT22;28604;51.204;22.552;2023-07-24T00:00:37;22.50;70.40
42965;DHT22;28604;51.204;22.552;2023-07-24T00:03:25;22.60;70.10
42965;DHT22;28604;51.204;22.552;2023-07-24T00:05:51;22.60;70.50
42965;DHT22;28604;51.204;22.552;2023-07-24T00:08:17;22.50;70.70
42965;DHT22;28604;51.204;22.552;2023-07-24T00:10:42;22.50;70.20
42965;DHT22;28604;51.204;22.552;2023-07-24T00:13:09;22.50;70.10
42965;DHT22;28604;51.204;22.552;2023-07-24T00:15:34;22.40;70.10
42965;DHT22;28604;51.204;22.552;2023-07-24T00:18:00;22.50;70.60
42965;DHT22;28604;51.204;22.552;2023-07-24T00:20:26;22.40;70.10
42965;DHT22;28604;51.204;22.552;2023-07-24T00:22:53;22.40;70.40
42965;DHT22;28604;51.204;22.552;2023-07-24T00:25:19;22.40;70.20
42965;DHT22;28604;51.204;22.552;2023-07-24T00:27:45;22.50;70.40
42965;DHT22;28604;51.204;22.552;2023-07-24T00:30:12;22.50;70.30
42965;DHT22;28604;51.204;22.552;2023-07-24T00:32:38;22.50;70.30
42965;DHT22;28604;51.204;22.552;2023-07-24T00:35:04;22.50;70.20
42965;DHT22;28604;51.204;22.552;2023-07-24T00:37:31;22.50;70.00
42965;DHT22;28604;51.204;22.552;2023-07-24T00:39:56;22.50;70.00
42965;DHT22;28604;51.204;22.552;2023-07-24T00:42:23;22.50;70.00
42965;DHT22;28604;51.204;22.552;2023-07-24T00:44:49;22.60;69.80
42965;DHT22;28604;51.204;22.552;2023-07-24T00:47:17;22.60;69.60
42965;DHT22;28604;51.204;22.552;2023-07-24T00:49:46;22.60;69.40
42965;DHT22;28604;51.204;22.552;2023-07-24T00:52:12;22.70;69.90
42965;DHT22;28604;51.204;22.552;2023-07-24T00:54:40;22.60;69.40
42965;DHT22;28604;51.204;22.552;2023-07-24T00:57:06;22.70;69.40
42965;DHT22;28604;51.204;22.552;2023-07-24T00:59:32;22.60;69.40
42965;DHT22;28604;51.204;22.552;2023-07-24T01:01:59;22.60;69.30
42965;DHT22;28604;51.204;22.552;2023-07-24T01:04:25;22.60;69.10
42965;DHT22;28604;51.204;22.552;2023-07-24T01:06:51;22.60;69.20
42965;DHT22;28604;51.204;22.552;2023-07-24T01:09:17;22.50;69.10
42965;DHT22;28604;51.204;22.552;2023-07-24T01:11:52;22.50;69.30
42965;DHT22;28604;51.204;22.552;2023-07-24T01:14:25;22.40;69.30
42965;DHT22;28604;51.204;22.552;2023-07-24T01:16:55;22.40;69.30
42965;DHT22;28604;51.204;22.552;2023-07-24T01:19:37;22.40;69.20
42965;DHT22;28604;51.204;22.552;2023-07-24T01:22:10;22.40;69.00
42965;DHT22;28604;51.204;22.552;2023-07-24T01:27:24;22.50;69.20
42965;DHT22;28604;51.204;22.552;2023-07-24T01:29:50;22.50;69.20
42965;DHT22;28604;51.204;22.552;2023-07-24T01:32:17;22.50;69.30
42965;DHT22;28604;51.204;22.552;2023-07-24T01:34:44;22.40;69.30
42965;DHT22;28604;51.204;22.552;2023-07-24T01:37:12;22.40;69.80
42965;DHT22;28604;51.204;22.552;2023-07-24T01:39:40;22.40;70.00
42965;DHT22;28604;51.204;22.552;2023-07-24T01:42:08;22.40;70.00
42965;DHT22;28604;51.204;22.552;2023-07-24T01:44:34;22.40;69.90
42965;DHT22;28604;51.204;22.552;2023-07-24T01:47:00;22.40;69.90
42965;DHT22;28604;51.204;22.552;2023-07-24T01:49:26;22.40;69.90
42965;DHT22;28604;51.204;22.552;2023-07-24T01:51:52;22.50;70.00
42965;DHT22;28604;51.204;22.552;2023-07-24T01:54:18;22.50;70.10
42965;DHT22;28604;51.204;22.552;2023-07-24T01:56:44;22.40;70.40
42965;DHT22;28604;51.204;22.552;2023-07-24T01:59:10;22.30;70.70
42965;DHT22;28604;51.204;22.552;2023-07-24T02:01:36;22.30;70.80
42965;DHT22;28604;51.204;22.552;2023-07-24T02:04:02;22.40;71.10
42965;DHT22;28604;51.204;22.552;2023-07-24T02:06:29;22.30;71.20
42965;DHT22;28604;51.204;22.552;2023-07-24T02:08:54;22.30;71.00
42965;DHT22;28604;51.204;22.552;2023-07-24T02:11:20;22.30;71.10
42965;DHT22;28604;51.204;22.552;2023-07-24T02:13:47;22.30;71.10
42965;DHT22;28604;51.204;22.552;2023-07-24T02:16:14;22.30;70.80
42965;DHT22;28604;51.204;22.552;2023-07-24T02:18:42;22.20;71.20
42965;DHT22;28604;51.204;22.552;2023-07-24T02:21:08;22.20;71.30
42965;DHT22;28604;51.204;22.552;2023-07-24T02:23:34;22.20;71.30
42965;DHT22;28604;51.204;22.552;2023-07-24T02:26:01;22.20;71.50
42965;DHT22;28604;51.204;22.552;2023-07-24T02:28:27;22.20;71.60
42965;DHT22;28604;51.204;22.552;2023-07-24T02:30:53;22.20;71.80
42965;DHT22;28604;51.204;22.552;2023-07-24T02:33:25;22.20;71.60
42965;DHT22;28604;51.204;22.552;2023-07-24T02:35:52;22.20;71.30
42965;DHT22;28604;51.204;22.552;2023-07-24T02:38:18;22.20;71.70
42965;DHT22;28604;51.204;22.552;2023-07-24T02:40:44;22.20;71.50
42965;DHT22;28604;51.204;22.552;2023-07-24T02:43:11;22.20;71.40
42965;DHT22;28604;51.204;22.552;2023-07-24T02:45:38;22.20;71.30
42965;DHT22;28604;51.204;22.552;2023-07-24T02:48:04;22.10;71.70
42965;DHT22;28604;51.204;22.552;2023-07-24T02:50:32;22.10;71.70
42965;DHT22;28604;51.204;22.552;2023-07-24T02:52:58;22.10;71.70
42965;DHT22;28604;51.204;22.552;2023-07-24T02:55:24;22.10;71.90
42965;DHT22;28604;51.204;22.552;2023-07-24T02:57:50;22.10;71.80
42965;DHT22;28604;51.204;22.552;2023-07-24T03:00:17;22.10;71.90
42965;DHT22;28604;51.204;22.552;2023-07-24T03:02:43;22.10;71.90
42965;DHT22;28604;51.204;22.552;2023-07-24T03:05:09;22.10;72.00
42965;DHT22;28604;51.204;22.552;2023-07-24T03:07:35;22.00;71.80
42965;DHT22;28604;51.204;22.552;2023-07-24T03:10:02;22.00;72.30
42965;DHT22;28604;51.204;22.552;2023-07-24T03:12:29;22.00;72.00
42965;DHT22;28604;51.204;22.552;2023-07-24T03:14:56;22.00;72.40
42965;DHT22;28604;51.204;22.552;2023-07-24T03:17:22;22.00;72.40
42965;DHT22;28604;51.204;22.552;2023-07-24T03:19:49;22.00;72.20
42965;DHT22;28604;51.204;22.552;2023-07-24T03:22:15;22.00;72.00
42965;DHT22;28604;51.204;22.552;2023-07-24T03:24:41;22.00;72.10
42965;DHT22;28604;51.204;22.552;2023-07-24T03:27:07;22.00;72.00
42965;DHT22;28604;51.204;22.552;2023-07-24T03:29:33;22.00;71.90
42965;DHT22;28604;51.204;22.552;2023-07-24T03:31:59;22.00;71.90
42965;DHT22;28604;51.204;22.552;2023-07-24T03:34:25;22.00;71.90
42965;DHT22;28604;51.204;22.552;2023-07-24T03:36:51;22.00;71.90
42965;DHT22;28604;51.204;22.552;2023-07-24T03:39:17;22.00;71.90
42965;DHT22;28604;51.204;22.552;2023-07-24T03:41:43;22.00;72.20
42965;DHT22;28604;51.204;22.552;2023-07-24T03:44:09;22.00;72.10
42965;DHT22;28604;51.204;22.552;2023-07-24T03:46:35;21.90;71.90
42965;DHT22;28604;51.204;22.552;2023-07-24T03:51:30;21.90;72.00
42965;DHT22;28604;51.204;22.552;2023-07-24T03:53:57;22.00;72.10
42965;DHT22;28604;51.204;22.552;2023-07-24T03:56:22;22.00;72.00
42965;DHT22;28604;51.204;22.552;2023-07-24T03:58:48;22.00;71.90
42965;DHT22;28604;51.204;22.552;2023-07-24T04:01:14;22.00;72.10
42965;DHT22;28604;51.204;22.552;2023-07-24T04:03:40;22.00;72.00
42965;DHT22;28604;51.204;22.552;2023-07-24T04:06:06;22.00;71.80
42965;DHT22;28604;51.204;22.552;2023-07-24T04:08:32;22.00;71.70
42965;DHT22;28604;51.204;22.552;2023-07-24T04:10:58;22.10;71.70
42965;DHT22;28604;51.204;22.552;2023-07-24T04:13:24;22.20;71.80
42965;DHT22;28604;51.204;22.552;2023-07-24T04:15:50;22.10;71.60
42965;DHT22;28604;51.204;22.552;2023-07-24T04:18:41;22.20;71.80
42965;DHT22;28604;51.204;22.552;2023-07-24T04:21:07;22.10;71.70
42965;DHT22;28604;51.204;22.552;2023-07-24T04:23:33;22.10;73.40
42965;DHT22;28604;51.204;22.552;2023-07-24T04:25:58;22.10;73.40
42965;DHT22;28604;51.204;22.552;2023-07-24T04:28:25;22.10;73.20
42965;DHT22;28604;51.204;22.552;2023-07-24T04:30:50;22.10;72.40
42965;DHT22;28604;51.204;22.552;2023-07-24T04:33:16;22.10;72.40
42965;DHT22;28604;51.204;22.552;2023-07-24T04:35:42;22.10;72.30
42965;DHT22;28604;51.204;22.552;2023-07-24T04:38:08;22.10;72.40
42965;DHT22;28604;51.204;22.552;2023-07-24T04:40:34;22.10;72.30
42965;DHT22;28604;51.204;22.552;2023-07-24T04:43:00;22.20;72.30
42965;DHT22;28604;51.204;22.552;2023-07-24T04:45:26;22.20;72.10
42965;DHT22;28604;51.204;22.552;2023-07-24T04:47:52;22.20;72.30
42965;DHT22;28604;51.204;22.552;2023-07-24T04:56:42;22.40;72.20
42965;DHT22;28604;51.204;22.552;2023-07-24T04:59:07;22.40;72.00
42965;DHT22;28604;51.204;22.552;2023-07-24T05:01:34;22.40;72.00
42965;DHT22;28604;51.204;22.552;2023-07-24T05:04:00;22.40;72.20
42965;DHT22;28604;51.204;22.552;2023-07-24T05:06:26;22.40;72.00
42965;DHT22;28604;51.204;22.552;2023-07-24T05:08:53;22.40;72.20
42965;DHT22;28604;51.204;22.552;2023-07-24T05:11:19;22.50;72.20
42965;DHT22;28604;51.204;22.552;2023-07-24T05:13:45;22.50;72.20
42965;DHT22;28604;51.204;22.552;2023-07-24T05:16:11;22.50;72.20
42965;DHT22;28604;51.204;22.552;2023-07-24T05:18:36;22.50;72.30
42965;DHT22;28604;51.204;22.552;2023-07-24T05:21:02;22.60;72.90
42965;DHT22;28604;51.204;22.552;2023-07-24T05:23:28;22.60;72.50
42965;DHT22;28604;51.204;22.552;2023-07-24T05:26:02;22.70;72.20
42965;DHT22;28604;51.204;22.552;2023-07-24T05:28:29;22.80;72.30
42965;DHT22;28604;51.204;22.552;2023-07-24T05:30:55;22.80;72.30
42965;DHT22;28604;51.204;22.552;2023-07-24T05:33:21;22.80;72.40
42965;DHT22;28604;51.204;22.552;2023-07-24T05:35:50;22.80;72.10
42965;DHT22;28604;51.204;22.552;2023-07-24T05:38:16;22.90;72.10
42965;DHT22;28604;51.204;22.552;2023-07-24T05:40:42;23.00;72.10
42965;DHT22;28604;51.204;22.552;2023-07-24T05:43:08;23.00;72.00
42965;DHT22;28604;51.204;22.552;2023-07-24T05:45:34;23.10;72.00
42965;DHT22;28604;51.204;22.552;2023-07-24T05:48:00;23.10;72.00
42965;DHT22;28604;51.204;22.552;2023-07-24T05:50:26;23.20;71.70
42965;DHT22;28604;51.204;22.552;2023-07-24T05:52:52;23.20;71.60
42965;DHT22;28604;51.204;22.552;2023-07-24T05:55:18;23.30;71.80
42965;DHT22;28604;51.204;22.552;2023-07-24T05:57:44;23.40;71.70
42965;DHT22;28604;51.204;22.552;2023-07-24T06:00:11;23.50;71.20
42965;DHT22;28604;51.204;22.552;2023-07-24T06:02:42;23.60;70.90
42965;DHT22;28604;51.204;22.552;2023-07-24T06:05:08;23.70;70.50
42965;DHT22;28604;51.204;22.552;2023-07-24T06:07:34;23.70;70.40
42965;DHT22;28604;51.204;22.552;2023-07-24T06:10:00;23.80;70.30
42965;DHT22;28604;51.204;22.552;2023-07-24T06:12:26;23.90;70.30
42965;DHT22;28604;51.204;22.552;2023-07-24T06:14:52;24.00;70.10
42965;DHT22;28604;51.204;22.552;2023-07-24T06:17:18;24.20;69.60
42965;DHT22;28604;51.204;22.552;2023-07-24T06:19:44;24.40;69.40
42965;DHT22;28604;51.204;22.552;2023-07-24T06:22:10;24.60;68.30
42965;DHT22;28604;51.204;22.552;2023-07-24T06:24:36;24.90;68.00
42965;DHT22;28604;51.204;22.552;2023-07-24T06:27:04;25.20;67.40
42965;DHT22;28604;51.204;22.552;2023-07-24T06:29:32;25.80;66.00
42965;DHT22;28604;51.204;22.552;2023-07-24T06:31:58;26.20;64.80
42965;DHT22;28604;51.204;22.552;2023-07-24T06:34:25;26.60;63.70
42965;DHT22;28604;51.204;22.552;2023-07-24T06:36:51;27.10;62.40
42965;DHT22;28604;51.204;22.552;2023-07-24T06:39:20;27.70;61.20
42965;DHT22;28604;51.204;22.552;2023-07-24T06:42:11;28.20;61.30
42965;DHT22;28604;51.204;22.552;2023-07-24T07:17:38;33.40;49.50
42965;DHT22;28604;51.204;22.552;2023-07-24T07:20:05;33.70;49.50
42965;DHT22;28604;51.204;22.552;2023-07-24T07:22:31;33.90;49.20
42965;DHT22;28604;51.204;22.552;2023-07-24T07:24:57;33.90;49.90
42965;DHT22;28604;51.204;22.552;2023-07-24T07:27:23;34.30;49.60
42965;DHT22;28604;51.204;22.552;2023-07-24T07:29:49;34.40;49.10
42965;DHT22;28604;51.204;22.552;2023-07-24T07:32:15;34.60;49.00
42965;DHT22;28604;51.204;22.552;2023-07-24T07:34:41;34.60;48.70
42965;DHT22;28604;51.204;22.552;2023-07-24T07:37:07;34.30;48.50
42965;DHT22;28604;51.204;22.552;2023-07-24T07:39:37;34.10;48.60
42965;DHT22;28604;51.204;22.552;2023-07-24T07:42:18;34.00;48.80
42965;DHT22;28604;51.204;22.552;2023-07-24T07:45:07;34.00;48.90
42965;DHT22;28604;51.204;22.552;2023-07-24T07:47:33;34.00;49.00
42965;DHT22;28604;51.204;22.552;2023-07-24T07:49:59;33.90;48.80
42965;DHT22;28604;51.204;22.552;2023-07-24T07:52:24;33.80;49.40
42965;DHT22;28604;51.204;22.552;2023-07-24T07:54:51;33.80;48.80
42965;DHT22;28604;51.204;22.552;2023-07-24T07:57:16;33.70;48.40
42965;DHT22;28604;51.204;22.552;2023-07-24T07:59:42;33.60;48.80
42965;DHT22;28604;51.204;22.552;2023-07-24T08:02:08;33.40;48.60
42965;DHT22;28604;51.204;22.552;2023-07-24T08:07:04;33.30;48.90
42965;DHT22;28604;51.204;22.552;2023-07-24T08:09:30;33.20;49.10
42965;DHT22;28604;51.204;22.552;2023-07-24T08:11:58;32.80;49.70
42965;DHT22;28604;51.204;22.552;2023-07-24T08:14:24;32.70;50.00
42965;DHT22;28604;51.204;22.552;2023-07-24T08:16:50;32.70;49.40
42965;DHT22;28604;51.204;22.552;2023-07-24T08:19:16;32.50;50.00
42965;DHT22;28604;51.204;22.552;2023-07-24T08:21:42;32.40;50.20
42965;DHT22;28604;51.204;22.552;2023-07-24T08:24:08;32.30;50.10
42965;DHT22;28604;51.204;22.552;2023-07-24T08:26:34;32.10;50.00
42965;DHT22;28604;51.204;22.552;2023-07-24T08:29:00;32.00;52.10
42965;DHT22;28604;51.204;22.552;2023-07-24T08:31:26;31.80;55.70
42965;DHT22;28604;51.204;22.552;2023-07-24T08:33:52;31.70;58.70
42965;DHT22;28604;51.204;22.552;2023-07-24T08:36:18;31.70;54.80
42965;DHT22;28604;51.204;22.552;2023-07-24T08:38:44;31.90;53.00
42965;DHT22;28604;51.204;22.552;2023-07-24T08:41:12;32.20;50.60
42965;DHT22;28604;51.204;22.552;2023-07-24T08:43:40;32.50;49.60
42965;DHT22;28604;51.204;22.552;2023-07-24T08:46:07;32.80;49.60
42965;DHT22;28604;51.204;22.552;2023-07-24T08:48:36;33.10;49.00
42965;DHT22;28604;51.204;22.552;2023-07-24T08:51:09;33.40;48.40
42965;DHT22;28604;51.204;22.552;2023-07-24T08:53:37;33.50;47.40
42965;DHT22;28604;51.204;22.552;2023-07-24T08:56:05;33.40;47.70
42965;DHT22;28604;51.204;22.552;2023-07-24T08:58:33;33.30;47.80
42965;DHT22;28604;51.204;22.552;2023-07-24T09:01:00;33.10;48.00
42965;DHT22;28604;51.204;22.552;2023-07-24T09:03:27;32.90;48.30
42965;DHT22;28604;51.204;22.552;2023-07-24T09:05:53;32.60;49.10
42965;DHT22;28604;51.204;22.552;2023-07-24T09:08:37;32.50;48.80
42965;DHT22;28604;51.204;22.552;2023-07-24T09:11:04;32.50;49.60
42965;DHT22;28604;51.204;22.552;2023-07-24T09:13:32;32.70;49.30
42965;DHT22;28604;51.204;22.552;2023-07-24T09:15:58;33.20;49.50
42965;DHT22;28604;51.204;22.552;2023-07-24T09:18:25;33.90;48.80
42965;DHT22;28604;51.204;22.552;2023-07-24T09:20:51;34.60;48.20
42965;DHT22;28604;51.204;22.552;2023-07-24T09:23:26;35.20;47.40
42965;DHT22;28604;51.204;22.552;2023-07-24T09:25:55;35.60;47.20
42965;DHT22;28604;51.204;22.552;2023-07-24T09:28:21;36.00;46.40
42965;DHT22;28604;51.204;22.552;2023-07-24T09:30:58;36.40;46.00
42965;DHT22;28604;51.204;22.552;2023-07-24T09:33:42;36.80;43.80
42965;DHT22;28604;51.204;22.552;2023-07-24T09:36:09;37.10;43.80
42965;DHT22;28604;51.204;22.552;2023-07-24T09:38:37;37.30;43.80
42965;DHT22;28604;51.204;22.552;2023-07-24T09:41:04;37.70;43.30
42965;DHT22;28604;51.204;22.552;2023-07-24T09:43:31;38.00;43.40
42965;DHT22;28604;51.204;22.552;2023-07-24T09:45:58;38.40;43.10
42965;DHT22;28604;51.204;22.552;2023-07-24T09:48:27;38.60;42.90
42965;DHT22;28604;51.204;22.552;2023-07-24T09:50:54;38.90;43.00
42965;DHT22;28604;51.204;22.552;2023-07-24T09:56:03;39.30;43.60
42965;DHT22;28604;51.204;22.552;2023-07-24T09:58:33;39.20;43.50
42965;DHT22;28604;51.204;22.552;2023-07-24T10:01:03;39.50;42.80
42965;DHT22;28604;51.204;22.552;2023-07-24T10:03:35;39.70;42.10
42965;DHT22;28604;51.204;22.552;2023-07-24T10:06:01;39.80;41.90
42965;DHT22;28604;51.204;22.552;2023-07-24T10:08:28;39.90;42.40
42965;DHT22;28604;51.204;22.552;2023-07-24T10:10:54;40.00;43.00
42965;DHT22;28604;51.204;22.552;2023-07-24T10:13:21;40.10;43.20
42965;DHT22;28604;51.204;22.552;2023-07-24T10:15:48;40.20;43.30
42965;DHT22;28604;51.204;22.552;2023-07-24T10:18:16;40.10;43.40
42965;DHT22;28604;51.204;22.552;2023-07-24T10:20:44;39.90;43.70
42965;DHT22;28604;51.204;22.552;2023-07-24T10:23:11;39.90;43.60
42965;DHT22;28604;51.204;22.552;2023-07-24T10:25:44;40.00;42.60
42965;DHT22;28604;51.204;22.552;2023-07-24T10:28:11;39.70;42.80
42965;DHT22;28604;51.204;22.552;2023-07-24T10:30:38;39.60;42.60
42965;DHT22;28604;51.204;22.552;2023-07-24T10:33:18;39.70;43.00
42965;DHT22;28604;51.204;22.552;2023-07-24T10:35:52;39.70;43.90
42965;DHT22;28604;51.204;22.552;2023-07-24T10:38:18;39.60;43.70
42965;DHT22;28604;51.204;22.552;2023-07-24T10:40:46;39.50;44.20
42965;DHT22;28604;51.204;22.552;2023-07-24T10:43:18;39.20;44.40
42965;DHT22;28604;51.204;22.552;2023-07-24T10:45:51;39.20;44.50
42965;DHT22;28604;51.204;22.552;2023-07-24T10:48:18;39.10;44.30
42965;DHT22;28604;51.204;22.552;2023-07-24T10:50:48;38.80;44.50
42965;DHT22;28604;51.204;22.552;2023-07-24T10:53:17;38.70;44.50
42965;DHT22;28604;51.204;22.552;2023-07-24T10:55:44;38.60;45.30
42965;DHT22;28604;51.204;22.552;2023-07-24T10:58:11;38.60;44.20
42965;DHT22;28604;51.204;22.552;2023-07-24T11:00:42;38.50;43.70
42965;DHT22;28604;51.204;22.552;2023-07-24T11:03:13;38.30;44.30
42965;DHT22;28604;51.204;22.552;2023-07-24T11:05:43;38.20;45.10
42965;DHT22;28604;51.204;22.552;2023-07-24T11:08:14;38.00;45.00
42965;DHT22;28604;51.204;22.552;2023-07-24T11:10:51;37.70;45.10
42965;DHT22;28604;51.204;22.552;2023-07-24T11:13:20;37.40;45.80
42965;DHT22;28604;51.204;22.552;2023-07-24T11:15:48;37.10;45.70
42965;DHT22;28604;51.204;22.552;2023-07-24T11:18:14;36.80;46.40
42965;DHT22;28604;51.204;22.552;2023-07-24T11:23:12;36.20;47.20
42965;DHT22;28604;51.204;22.552;2023-07-24T11:25:39;35.90;48.00
42965;DHT22;28604;51.204;22.552;2023-07-24T11:28:06;35.60;48.70
42965;DHT22;28604;51.204;22.552;2023-07-24T11:30:32;35.30;49.50
42965;DHT22;28604;51.204;22.552;2023-07-24T11:33:00;35.00;50.30
42965;DHT22;28604;51.204;22.552;2023-07-24T11:35:26;35.00;49.50
42965;DHT22;28604;51.204;22.552;2023-07-24T11:37:53;34.90;50.00
42965;DHT22;28604;51.204;22.552;2023-07-24T11:40:19;34.70;50.30
42965;DHT22;28604;51.204;22.552;2023-07-24T11:42:49;34.60;50.70
42965;DHT22;28604;51.204;22.552;2023-07-24T11:45:15;34.50;50.90
42965;DHT22;28604;51.204;22.552;2023-07-24T11:47:48;34.20;51.60
42965;DHT22;28604;51.204;22.552;2023-07-24T11:50:16;33.90;51.90
42965;DHT22;28604;51.204;22.552;2023-07-24T11:52:47;33.80;52.00
42965;DHT22;28604;51.204;22.552;2023-07-24T11:55:18;33.60;52.40
42965;DHT22;28604;51.204;22.552;2023-07-24T11:57:58;33.50;52.50
42965;DHT22;28604;51.204;22.552;2023-07-24T12:00:24;33.20;52.90
42965;DHT22;28604;51.204;22.552;2023-07-24T12:02:51;33.10;53.70
42965;DHT22;28604;51.204;22.552;2023-07-24T12:05:17;33.10;53.70
42965;DHT22;28604;51.204;22.552;2023-07-24T12:07:43;33.10;53.30
42965;DHT22;28604;51.204;22.552;2023-07-24T12:10:12;33.10;53.20
42965;DHT22;28604;51.204;22.552;2023-07-24T12:12:47;33.00;54.10
42965;DHT22;28604;51.204;22.552;2023-07-24T12:15:14;32.90;53.60
42965;DHT22;28604;51.204;22.552;2023-07-24T12:17:40;32.70;53.50
42965;DHT22;28604;51.204;22.552;2023-07-24T12:20:08;32.60;53.80
42965;DHT22;28604;51.204;22.552;2023-07-24T12:22:36;32.50;52.90
42965;DHT22;28604;51.204;22.552;2023-07-24T12:25:03;32.50;53.00
42965;DHT22;28604;51.204;22.552;2023-07-24T12:27:30;32.60;53.20
42965;DHT22;28604;51.204;22.552;2023-07-24T12:29:57;32.60;53.20
42965;DHT22;28604;51.204;22.552;2023-07-24T12:32:23;32.70;52.60
42965;DHT22;28604;51.204;22.552;2023-07-24T12:34:50;32.80;51.90
42965;DHT22;28604;51.204;22.552;2023-07-24T12:37:18;32.70;51.00
42965;DHT22;28604;51.204;22.552;2023-07-24T12:39:45;32.60;51.50
42965;DHT22;28604;51.204;22.552;2023-07-24T12:42:11;32.70;51.80
42965;DHT22;28604;51.204;22.552;2023-07-24T12:44:37;32.90;51.80
42965;DHT22;28604;51.204;22.552;2023-07-24T12:47:04;32.90;50.50
42965;DHT22;28604;51.204;22.552;2023-07-24T12:49:30;33.10;50.60
42965;DHT22;28604;51.204;22.552;2023-07-24T12:51:56;33.20;51.20
42965;DHT22;28604;51.204;22.552;2023-07-24T12:54:22;33.20;50.80
42965;DHT22;28604;51.204;22.552;2023-07-24T12:56:49;33.20;51.20
42965;DHT22;28604;51.204;22.552;2023-07-24T12:59:16;33.20;51.60
42965;DHT22;28604;51.204;22.552;2023-07-24T13:01:42;33.20;51.90
42965;DHT22;28604;51.204;22.552;2023-07-24T13:04:08;33.20;52.60
42965;DHT22;28604;51.204;22.552;2023-07-24T13:06:34;33.30;52.30
42965;DHT22;28604;51.204;22.552;2023-07-24T13:09:00;33.40;52.00
42965;DHT22;28604;51.204;22.552;2023-07-24T13:11:27;33.60;51.40
42965;DHT22;28604;51.204;22.552;2023-07-24T13:13:56;33.70;50.50
42965;DHT22;28604;51.204;22.552;2023-07-24T13:16:22;33.70;50.40
42965;DHT22;28604;51.204;22.552;2023-07-24T13:18:48;33.70;50.30
42965;DHT22;28604;51.204;22.552;2023-07-24T13:21:15;33.70;50.30
42965;DHT22;28604;51.204;22.552;2023-07-24T13:23:41;33.60;50.40
42965;DHT22;28604;51.204;22.552;2023-07-24T13:26:07;33.60;50.30
42965;DHT22;28604;51.204;22.552;2023-07-24T13:28:41;33.50;50.60
42965;DHT22;28604;51.204;22.552;2023-07-24T13:31:15;33.50;50.00
42965;DHT22;28604;51.204;22.552;2023-07-24T13:33:41;33.40;50.40
42965;DHT22;28604;51.204;22.552;2023-07-24T13:36:08;33.20;50.90
42965;DHT22;28604;51.204;22.552;2023-07-24T13:38:34;33.00;50.50
42965;DHT22;28604;51.204;22.552;2023-07-24T13:41:01;32.90;51.10
42965;DHT22;28604;51.204;22.552;2023-07-24T13:43:27;32.80;51.20
42965;DHT22;28604;51.204;22.552;2023-07-24T13:45:53;32.80;50.10
42965;DHT22;28604;51.204;22.552;2023-07-24T13:48:19;32.70;50.00
42965;DHT22;28604;51.204;22.552;2023-07-24T13:50:45;32.70;50.50
42965;DHT22;28604;51.204;22.552;2023-07-24T13:53:11;32.70;50.70
42965;DHT22;28604;51.204;22.552;2023-07-24T13:55:38;32.80;50.70
42965;DHT22;28604;51.204;22.552;2023-07-24T13:58:04;32.70;51.10
42965;DHT22;28604;51.204;22.552;2023-07-24T14:00:30;32.70;51.90
42965;DHT22;28604;51.204;22.552;2023-07-24T14:02:56;32.70;51.50
42965;DHT22;28604;51.204;22.552;2023-07-24T14:05:22;32.60;51.20
42965;DHT22;28604;51.204;22.552;2023-07-24T14:07:47;32.50;51.50
42965;DHT22;28604;51.204;22.552;2023-07-24T14:10:13;32.50;50.70
42965;DHT22;28604;51.204;22.552;2023-07-24T14:12:39;32.60;50.70
42965;DHT22;28604;51.204;22.552;2023-07-24T14:15:06;32.60;50.30
42965;DHT22;28604;51.204;22.552;2023-07-24T14:17:32;32.50;50.60
42965;DHT22;28604;51.204;22.552;2023-07-24T14:19:58;32.50;49.40
42965;DHT22;28604;51.204;22.552;2023-07-24T14:22:24;32.50;48.90
42965;DHT22;28604;51.204;22.552;2023-07-24T14:24:50;32.70;48.60
42965;DHT22;28604;51.204;22.552;2023-07-24T14:27:16;32.70;48.00
42965;DHT22;28604;51.204;22.552;2023-07-24T14:32:22;32.80;48.00
42965;DHT22;28604;51.204;22.552;2023-07-24T14:34:50;32.90;47.90
42965;DHT22;28604;51.204;22.552;2023-07-24T14:37:16;33.00;48.30
42965;DHT22;28604;51.204;22.552;2023-07-24T14:39:42;33.00;47.70
42965;DHT22;28604;51.204;22.552;2023-07-24T14:42:10;32.90;48.00
42965;DHT22;28604;51.204;22.552;2023-07-24T14:44:37;32.70;48.60
42965;DHT22;28604;51.204;22.552;2023-07-24T14:47:03;32.60;48.50
42965;DHT22;28604;51.204;22.552;2023-07-24T14:49:29;32.50;48.60
42965;DHT22;28604;51.204;22.552;2023-07-24T14:51:54;32.30;49.60
42965;DHT22;28604;51.204;22.552;2023-07-24T14:54:21;32.10;50.70
42965;DHT22;28604;51.204;22.552;2023-07-24T14:56:46;31.90;52.10
42965;DHT22;28604;51.204;22.552;2023-07-24T14:59:12;31.70;52.80
42965;DHT22;28604;51.204;22.552;2023-07-24T15:01:38;31.50;53.70
42965;DHT22;28604;51.204;22.552;2023-07-24T15:04:05;31.40;54.20
42965;DHT22;28604;51.204;22.552;2023-07-24T15:06:30;31.30;54.90
42965;DHT22;28604;51.204;22.552;2023-07-24T15:08:57;31.20;55.80
42965;DHT22;28604;51.204;22.552;2023-07-24T15:11:23;31.20;56.60
42965;DHT22;28604;51.204;22.552;2023-07-24T15:13:51;31.10;56.80
42965;DHT22;28604;51.204;22.552;2023-07-24T15:16:17;31.00;57.10
42965;DHT22;28604;51.204;22.552;2023-07-24T15:18:43;30.90;58.00
42965;DHT22;28604;51.204;22.552;2023-07-24T15:21:10;30.70;58.70
42965;DHT22;28604;51.204;22.552;2023-07-24T15:23:36;30.60;59.40
42965;DHT22;28604;51.204;22.552;2023-07-24T15:26:02;30.60;59.60
42965;DHT22;28604;51.204;22.552;2023-07-24T15:28:28;30.50;59.90
42965;DHT22;28604;51.204;22.552;2023-07-24T15:30:54;30.40;59.80
42965;DHT22;28604;51.204;22.552;2023-07-24T15:33:20;30.30;59.70
42965;DHT22;28604;51.204;22.552;2023-07-24T15:35:46;30.20;59.80
42965;DHT22;28604;51.204;22.552;2023-07-24T15:38:12;30.30;59.40
42965;DHT22;28604;51.204;22.552;2023-07-24T15:40:39;30.30;59.20
42965;DHT22;28604;51.204;22.552;2023-07-24T15:43:09;30.20;58.00
42965;DHT22;28604;51.204;22.552;2023-07-24T15:45:35;30.10;58.40
42965;DHT22;28604;51.204;22.552;2023-07-24T15:48:01;30.10;58.60
42965;DHT22;28604;51.204;22.552;2023-07-24T15:50:27;30.10;58.80
42965;DHT22;28604;51.204;22.552;2023-07-24T15:52:53;30.20;58.70
42965;DHT22;28604;51.204;22.552;2023-07-24T15:55:19;30.10;58.70
42965;DHT22;28604;51.204;22.552;2023-07-24T15:57:45;30.10;58.50
42965;DHT22;28604;51.204;22.552;2023-07-24T16:00:11;30.10;58.30
42965;DHT22;28604;51.204;22.552;2023-07-24T16:02:40;30.10;58.10
42965;DHT22;28604;51.204;22.552;2023-07-24T16:05:19;30.10;58.20
42965;DHT22;28604;51.204;22.552;2023-07-24T16:07:46;30.10;58.20
42965;DHT22;28604;51.204;22.552;2023-07-24T16:10:12;30.10;58.40